Portada
METAR-TAF:

METAR-TAF

Aeropuertos :

Aeropuerto de Melilla

Melilla, España

latitud: 35-17N, longitud: 002-57W, altitud: 47 m

Observación

El informe se hizo hace 33 minutos, a las 11:30 UTC
Viento 10 kt del norte-noroeste, variando entre oeste-noroeste y norte
Temperatura 24°C
Humedad 54%
Presión 1015 hPa
Visibilidad 10 km o más
Escasas nubes a una altura de 3400 ft

METAR: GEML 261130Z 34010KT 300V010 9999 FEW034 24/14 Q1015

Hora: 14:03 (12:03 UTC)

Pronóstico

El informe se hizo hace 1 hora y 3 minutos, a las 11:00 UTC
Pronóstico válido del 26 a las 12 UTC al 27 a las 12 UTC
Viento 9 kt del oeste
Visibilidad 10 km o más
Escasas nubes a una altura de 3000 ft

TAF: GEML 261100Z 2612/2712 27009KT 9999 FEW030 TX26/2614Z TN20/2706Z

Observaciones y pronósticos meteorológicos de más de 4000 aeropuertos (mensajes METAR y TAF).

Los puntos amarillos y rojos representan las estaciones disponibles.

Ponga el ratón en el punto deseado para ver el nombre de la estación.

Haga clic para ver las observaciones y los pronósticos meteorológicos.

Para cambiar el mapa : haga clic en los botones verdes con una cruz de color negro para hacer un zoom, en el botón verde con un guión para alejar o en las flechas verdes para mapas adyacentes.


METAR-TAF: